Time;durP1;ratioP1;P1;durP2;ratioP2;P2;SDS_P1;SDS_P2;PMS_P1;PMS_P2;Temp;Humidity;BMP_temperature;BMP_pressure;BME280_temperature;BME280_humidity;BME280_pressure;Samples;Min_cycle;Max_cycle;Signal;HPM_P1;HPM_P2
2022/03/18 00:02:10;;;;;;;5.60;4.27;;;17.30;56.60;;;;;;5223380;28;20649;-65
2022/03/18 00:05:03;;;;;;;5.60;4.20;;;17.40;56.60;;;;;;5224820;28;20392;-65
2022/03/18 00:07:55;;;;;;;5.13;3.83;;;17.30;56.60;;;;;;5225195;28;20197;-65
2022/03/18 00:10:49;;;;;;;4.93;3.57;;;17.30;56.50;;;;;;5224570;28;20635;-65
2022/03/18 00:13:41;;;;;;;4.30;3.33;;;17.40;56.60;;;;;;5224772;28;20200;-65
2022/03/18 00:16:33;;;;;;;5.30;4.07;;;17.40;56.60;;;;;;5224547;28;20225;-65
2022/03/18 00:19:27;;;;;;;6.20;3.77;;;17.40;56.60;;;;;;5223970;28;20197;-65
2022/03/18 00:22:19;;;;;;;5.30;3.80;;;17.30;56.50;;;;;;5203899;28;20568;-65
2022/03/18 00:25:12;;;;;;;4.53;3.60;;;17.30;56.40;;;;;;5203449;28;20198;-65
2022/03/18 00:28:06;;;;;;;4.73;3.57;;;17.30;56.50;;;;;;5204687;28;20194;-65
2022/03/18 00:30:58;;;;;;;4.97;3.77;;;17.40;56.50;;;;;;5203455;28;20201;-65
2022/03/18 00:33:50;;;;;;;4.30;3.10;;;17.30;56.40;;;;;;5223429;28;20217;-64
2022/03/18 00:36:42;;;;;;;4.10;3.40;;;17.30;56.40;;;;;;5219325;28;20217;-65
2022/03/18 00:39:34;;;;;;;4.13;3.57;;;17.30;56.30;;;;;;5225331;28;20668;-65
2022/03/18 00:42:26;;;;;;;4.27;3.13;;;17.40;56.50;;;;;;5224331;28;20571;-65
2022/03/18 00:45:20;;;;;;;4.93;3.43;;;17.30;56.40;;;;;;5222759;28;20699;-65
2022/03/18 00:54:35;;;;;;;4.20;3.40;;;17.30;56.30;;;;;;5218746;28;20681;-65
2022/03/18 00:57:27;;;;;;;5.27;3.20;;;17.30;56.30;;;;;;5225082;28;20220;-65
2022/03/18 01:00:20;;;;;;;4.00;3.10;;;17.30;56.30;;;;;;5228292;28;20618;-65
2022/03/18 01:03:15;;;;;;;4.63;3.20;;;17.30;56.20;;;;;;5229009;28;20193;-65
2022/03/18 01:06:08;;;;;;;3.80;2.97;;;17.30;56.30;;;;;;5228566;28;20270;-65
2022/03/18 01:09:00;;;;;;;4.23;3.50;;;17.30;56.10;;;;;;5261898;22;21691;-67
2022/03/18 01:11:53;;;;;;;4.13;3.30;;;17.30;56.10;;;;;;5228932;28;20221;-67
2022/03/18 01:14:45;;;;;;;3.80;3.07;;;17.30;56.10;;;;;;5246774;28;20587;-67
2022/03/18 01:17:38;;;;;;;3.83;3.20;;;17.30;56.20;;;;;;5246448;28;20192;-67
2022/03/18 01:20:31;;;;;;;5.13;3.30;;;17.30;56.10;;;;;;5227686;28;20813;-67
2022/03/18 01:23:23;;;;;;;4.17;3.00;;;17.30;56.30;;;;;;5228102;28;20193;-67
2022/03/18 01:26:15;;;;;;;3.83;2.63;;;17.30;56.20;;;;;;5234728;28;20197;-67
2022/03/18 01:29:07;;;;;;;3.17;2.80;;;17.30;56.10;;;;;;5247995;28;20209;-65
2022/03/18 01:31:59;;;;;;;4.77;3.23;;;17.30;56.10;;;;;;5245394;28;20212;-67
2022/03/18 01:34:53;;;;;;;5.13;3.27;;;17.30;56.10;;;;;;5229298;28;20193;-67
2022/03/18 01:37:45;;;;;;;4.70;3.13;;;17.30;56.10;;;;;;5248110;28;20200;-67
2022/03/18 01:40:39;;;;;;;4.97;2.87;;;17.30;56.10;;;;;;5245518;28;20287;-67
2022/03/18 01:43:37;;;;;;;3.87;3.10;;;17.30;56.00;;;;;;5229403;28;20201;-67
2022/03/18 01:46:29;;;;;;;4.57;2.87;;;17.30;56.00;;;;;;5227092;28;20197;-67
2022/03/18 01:49:21;;;;;;;3.10;2.50;;;17.30;56.00;;;;;;5227835;28;20217;-67
2022/03/18 01:52:14;;;;;;;4.50;2.80;;;17.30;56.00;;;;;;5247847;28;20261;-67
2022/03/18 01:55:08;;;;;;;4.90;3.07;;;17.30;56.00;;;;;;5248292;28;20196;-67
2022/03/18 01:58:00;;;;;;;2.90;2.30;;;17.30;55.90;;;;;;5248176;28;20279;-67
2022/03/18 02:00:52;;;;;;;4.17;2.80;;;17.30;55.90;;;;;;5233015;28;20783;-67
2022/03/18 02:03:44;;;;;;;4.33;2.90;;;17.30;55.90;;;;;;5227163;28;20193;-67
2022/03/18 02:06:37;;;;;;;3.40;2.80;;;17.30;55.90;;;;;;5226800;28;20200;-67
2022/03/18 02:09:31;;;;;;;2.93;2.40;;;17.30;55.90;;;;;;5226410;28;20229;-68
2022/03/18 02:12:23;;;;;;;4.63;2.60;;;17.30;55.80;;;;;;5233045;28;20216;-67
2022/03/18 02:15:15;;;;;;;4.00;2.30;;;17.30;55.80;;;;;;5229011;28;20193;-68
2022/03/18 02:18:07;;;;;;;3.20;2.47;;;17.30;55.80;;;;;;5227139;28;20199;-67
2022/03/18 02:20:59;;;;;;;4.73;2.77;;;17.30;55.80;;;;;;5227100;28;20667;-69
2022/03/18 02:23:53;;;;;;;4.40;3.00;;;17.30;55.90;;;;;;5227259;28;20201;-67
2022/03/18 02:26:47;;;;;;;6.33;2.67;;;17.30;55.90;;;;;;5227044;28;20196;-67
2022/03/18 02:29:40;;;;;;;3.83;2.47;;;17.30;55.80;;;;;;5233382;28;20240;-68
2022/03/18 02:32:32;;;;;;;3.63;2.47;;;17.30;55.80;;;;;;5235390;28;20224;-66
2022/03/18 02:35:28;;;;;;;4.00;2.60;;;17.30;55.80;;;;;;5226334;28;20200;-66
2022/03/18 02:38:20;;;;;;;2.83;2.00;;;17.30;55.80;;;;;;5226784;28;20254;-66
2022/03/18 02:41:14;;;;;;;2.90;1.90;;;17.30;55.70;;;;;;5225844;28;20215;-67
2022/03/18 02:44:06;;;;;;;2.63;2.17;;;17.30;55.80;;;;;;5226591;28;20567;-67
2022/03/18 02:46:59;;;;;;;2.93;2.13;;;17.30;55.70;;;;;;5233352;28;20191;-67
2022/03/18 02:49:51;;;;;;;3.30;2.17;;;17.30;55.80;;;;;;5239552;28;20217;-67
2022/03/18 02:52:44;;;;;;;2.77;2.30;;;17.30;55.80;;;;;;5246818;28;20223;-67
2022/03/18 02:55:36;;;;;;;4.17;2.07;;;17.30;55.70;;;;;;5247106;28;20579;-68
2022/03/18 02:58:29;;;;;;;3.13;2.10;;;17.30;55.50;;;;;;5247057;28;20223;-67
2022/03/18 03:01:22;;;;;;;2.47;2.13;;;17.30;55.60;;;;;;5243632;28;20197;-67
2022/03/18 03:04:15;;;;;;;3.53;2.07;;;17.30;55.60;;;;;;5225758;28;20200;-67
2022/03/18 03:10:17;;;;;;;3.03;2.13;;;17.30;55.60;;;;;;5226028;28;20262;-67
2022/03/18 03:13:10;;;;;;;3.63;2.03;;;17.30;55.60;;;;;;5238658;28;20224;-67
2022/03/18 03:16:04;;;;;;;3.13;2.10;;;17.30;55.60;;;;;;5245538;28;20196;-67
2022/03/18 03:18:56;;;;;;;3.73;2.20;;;17.30;55.40;;;;;;5242519;28;20714;-68
2022/03/18 03:21:49;;;;;;;3.63;2.00;;;17.30;55.60;;;;;;5224165;28;20716;-67
2022/03/18 03:24:41;;;;;;;2.57;1.77;;;17.30;55.60;;;;;;5233335;28;20203;-67
2022/03/18 03:27:33;;;;;;;3.70;2.10;;;17.30;55.50;;;;;;5245824;28;20200;-67
2022/03/18 03:30:26;;;;;;;4.40;2.27;;;17.30;55.60;;;;;;5245953;28;20307;-67
2022/03/18 03:33:19;;;;;;;3.33;1.93;;;17.30;55.40;;;;;;5245455;28;20220;-67
2022/03/18 03:36:11;;;;;;;3.27;2.17;;;17.30;55.50;;;;;;5246281;28;20198;-67
2022/03/18 03:39:03;;;;;;;2.73;1.90;;;17.30;55.40;;;;;;5242586;28;20603;-67
2022/03/18 03:41:56;;;;;;;3.30;2.10;;;17.30;55.40;;;;;;5224800;28;20194;-67
2022/03/18 03:44:48;;;;;;;2.53;1.90;;;17.30;55.40;;;;;;5224948;28;20188;-67
2022/03/18 03:47:41;;;;;;;2.50;2.00;;;17.30;55.30;;;;;;5225099;28;20201;-67
2022/03/18 03:50:35;;;;;;;2.80;2.03;;;17.20;55.50;;;;;;5224870;28;20601;-67
2022/03/18 03:53:27;;;;;;;3.63;1.90;;;17.20;55.40;;;;;;5225218;28;20265;-67
2022/03/18 03:56:19;;;;;;;2.90;2.00;;;17.30;55.40;;;;;;5224825;28;20185;-67
2022/03/18 03:59:11;;;;;;;2.67;1.93;;;17.30;55.50;;;;;;5224598;28;20220;-67
2022/03/18 04:02:04;;;;;;;3.33;1.80;;;17.30;55.50;;;;;;5224599;28;20201;-67
2022/03/18 04:04:57;;;;;;;3.33;2.17;;;17.30;55.20;;;;;;5224683;28;20694;-67
2022/03/18 04:07:50;;;;;;;2.60;1.87;;;17.30;55.20;;;;;;5224668;28;20275;-67
2022/03/18 04:10:42;;;;;;;2.50;1.80;;;17.30;55.20;;;;;;5243427;28;20303;-67
2022/03/18 04:13:34;;;;;;;3.30;1.83;;;17.30;55.20;;;;;;5236499;28;20205;-67
2022/03/18 04:16:26;;;;;;;3.00;2.10;;;17.20;55.00;;;;;;5226606;28;20190;-67
2022/03/18 04:19:19;;;;;;;3.27;2.20;;;17.20;55.10;;;;;;5245275;28;20216;-67
2022/03/18 04:22:11;;;;;;;2.87;2.10;;;17.20;55.00;;;;;;5244913;28;20228;-67
2022/03/18 04:25:05;;;;;;;2.60;1.80;;;17.20;55.10;;;;;;5245523;28;20192;-67
2022/03/18 04:27:57;;;;;;;2.53;1.70;;;17.30;55.10;;;;;;5245911;28;20662;-67
2022/03/18 04:30:50;;;;;;;2.93;1.83;;;17.20;55.10;;;;;;5244699;28;20202;-67
2022/03/18 04:33:42;;;;;;;2.50;1.87;;;17.20;55.10;;;;;;5226283;28;20213;-67
2022/03/18 04:36:34;;;;;;;2.63;2.00;;;17.20;55.30;;;;;;5228495;28;20686;-67
2022/03/18 04:39:26;;;;;;;2.47;1.87;;;17.20;55.10;;;;;;5229356;28;20224;-67
2022/03/18 04:42:19;;;;;;;2.00;1.70;;;17.30;55.20;;;;;;5229184;28;20197;-67
2022/03/18 04:45:13;;;;;;;2.37;1.90;;;17.30;55.20;;;;;;5228354;28;20197;-66
2022/03/18 04:48:05;;;;;;;2.57;1.80;;;17.20;55.10;;;;;;5229350;28;20204;-66
2022/03/18 04:50:57;;;;;;;2.43;1.73;;;17.30;55.20;;;;;;5242402;28;20199;-67
2022/03/18 04:53:49;;;;;;;2.77;1.83;;;17.30;55.00;;;;;;5249377;28;20219;-67
2022/03/18 04:59:56;;;;;;;2.23;1.57;;;17.30;55.10;;;;;;5231024;28;20215;-67
2022/03/18 05:02:48;;;;;;;2.67;1.93;;;17.30;55.00;;;;;;5231208;28;20205;-68
2022/03/18 05:05:40;;;;;;;2.50;1.63;;;17.30;55.20;;;;;;5245280;28;20682;-68
2022/03/18 05:08:32;;;;;;;1.87;1.57;;;17.30;55.20;;;;;;5254983;28;20242;-67
2022/03/18 05:11:24;;;;;;;2.67;1.47;;;17.30;55.00;;;;;;5257084;28;20202;-67
2022/03/18 05:14:16;;;;;;;1.83;1.50;;;17.30;55.00;;;;;;5228132;28;20219;-67
2022/03/18 05:17:11;;;;;;;2.60;1.77;;;17.30;55.00;;;;;;5228970;28;20271;-67
2022/03/18 05:20:04;;;;;;;2.93;1.80;;;17.30;55.10;;;;;;5227606;28;20714;-67
2022/03/18 05:22:56;;;;;;;2.80;1.90;;;17.30;55.10;;;;;;5238582;28;20234;-67
2022/03/18 05:25:48;;;;;;;2.63;1.70;;;17.30;55.70;;;;;;5232931;28;20199;-66
2022/03/18 05:28:41;;;;;;;4.23;1.90;;;17.30;55.10;;;;;;5244347;28;20212;-67
2022/03/18 05:31:35;;;;;;;2.63;1.60;;;17.30;55.20;;;;;;5248726;28;20193;-66
2022/03/18 05:34:29;;;;;;;2.50;1.73;;;17.30;55.00;;;;;;5249213;28;20227;-67
2022/03/18 05:37:21;;;;;;;1.97;1.33;;;17.30;54.90;;;;;;5248930;28;20196;-67
2022/03/18 05:40:14;;;;;;;2.77;1.60;;;17.30;55.10;;;;;;5241764;28;20327;-67
2022/03/18 05:43:06;;;;;;;3.37;1.83;;;17.30;55.00;;;;;;5227637;28;20549;-67
2022/03/18 05:45:59;;;;;;;2.13;1.57;;;17.30;55.00;;;;;;5230099;28;20197;-67
2022/03/18 05:48:51;;;;;;;2.00;1.60;;;17.30;55.00;;;;;;5232438;28;20221;-68
2022/03/18 05:51:44;;;;;;;2.50;1.50;;;17.30;54.90;;;;;;5237755;28;20200;-67
2022/03/18 05:54:36;;;;;;;1.77;1.50;;;17.30;54.90;;;;;;5226987;28;20300;-67
2022/03/18 05:57:29;;;;;;;3.30;1.73;;;17.30;54.90;;;;;;5226955;28;20193;-67
2022/03/18 06:00:22;;;;;;;1.90;1.57;;;17.30;54.90;;;;;;5227158;28;20213;-67
2022/03/18 06:03:15;;;;;;;2.33;1.57;;;17.30;54.90;;;;;;5230917;28;20196;-68
2022/03/18 06:06:07;;;;;;;1.93;1.50;;;17.30;55.00;;;;;;5243061;28;20203;-67
2022/03/18 06:12:15;;;;;;;2.03;1.50;;;17.30;55.00;;;;;;5183771;28;20204;-67
2022/03/18 06:15:08;;;;;;;3.17;1.83;;;17.30;55.00;;;;;;5239428;28;20193;-65
2022/03/18 06:18:00;;;;;;;1.90;1.47;;;17.30;54.90;;;;;;5230148;28;20207;-67
2022/03/18 06:20:52;;;;;;;2.40;1.40;;;17.30;54.90;;;;;;5233327;28;20197;-66
2022/03/18 06:23:44;;;;;;;2.17;1.60;;;17.30;54.90;;;;;;5234050;28;20201;-67
2022/03/18 06:26:38;;;;;;;2.60;1.57;;;17.30;54.80;;;;;;5235157;28;20193;-67
2022/03/18 06:29:32;;;;;;;2.37;1.57;;;17.30;54.90;;;;;;5234205;28;20209;-67
2022/03/18 06:32:24;;;;;;;2.23;1.80;;;17.30;54.90;;;;;;5237068;28;20643;-68
2022/03/18 06:35:16;;;;;;;4.13;1.50;;;17.30;54.90;;;;;;5235080;28;20196;-68
2022/03/18 06:38:09;;;;;;;2.87;1.50;;;17.30;55.00;;;;;;5234589;28;20714;-65
2022/03/18 06:41:01;;;;;;;1.97;1.63;;;17.30;54.90;;;;;;5236623;28;20216;-66
2022/03/18 06:43:54;;;;;;;1.77;1.60;;;17.30;54.90;;;;;;5235750;28;20193;-67
2022/03/18 06:46:46;;;;;;;2.53;1.60;;;17.30;54.90;;;;;;5237866;28;20571;-67
2022/03/18 06:49:38;;;;;;;2.23;1.77;;;17.30;54.90;;;;;;5236778;28;20204;-67
2022/03/18 06:52:31;;;;;;;1.60;1.23;;;17.30;55.00;;;;;;5236063;28;20185;-66
2022/03/18 06:55:23;;;;;;;1.77;1.50;;;17.30;54.90;;;;;;5237541;28;20228;-67
2022/03/18 06:58:15;;;;;;;2.37;1.60;;;17.30;55.40;;;;;;5236179;28;20189;-66
2022/03/18 07:01:08;;;;;;;2.07;1.43;;;17.30;54.90;;;;;;5240647;28;20196;-66
2022/03/18 07:04:01;;;;;;;2.67;1.70;;;17.30;55.00;;;;;;5225630;28;20186;-67
2022/03/18 07:06:53;;;;;;;3.57;1.63;;;17.30;55.10;;;;;;5228075;28;20196;-66
2022/03/18 07:09:45;;;;;;;1.67;1.50;;;17.30;55.10;;;;;;5246265;28;20703;-66
2022/03/18 07:12:37;;;;;;;2.67;1.57;;;17.30;54.90;;;;;;5245667;28;20748;-68
2022/03/18 07:15:29;;;;;;;2.53;1.60;;;17.30;54.90;;;;;;5234722;28;20193;-68
2022/03/18 07:18:22;;;;;;;2.47;1.63;;;17.30;54.10;;;;;;5226006;28;20203;-68
2022/03/18 07:21:14;;;;;;;3.53;2.07;;;17.30;52.80;;;;;;5226037;28;20197;-68
2022/03/18 07:24:06;;;;;;;3.27;2.10;;;17.20;52.20;;;;;;5238159;28;20648;-67
2022/03/18 07:26:58;;;;;;;4.40;1.80;;;17.20;51.50;;;;;;5244654;28;20184;-66
2022/03/18 07:29:51;;;;;;;4.60;2.07;;;17.20;50.80;;;;;;5245915;28;20261;-66
2022/03/18 07:32:43;;;;;;;5.03;2.30;;;17.20;50.90;;;;;;5241933;28;20249;-66
2022/03/18 07:35:37;;;;;;;5.07;2.30;;;17.20;51.10;;;;;;5244665;28;20200;-66
2022/03/18 07:38:29;;;;;;;4.90;2.40;;;17.20;51.00;;;;;;5245332;28;20699;-66
2022/03/18 07:41:21;;;;;;;5.03;2.07;;;17.10;51.20;;;;;;5234528;28;20188;-66
2022/03/18 07:44:13;;;;;;;6.03;2.20;;;17.10;50.90;;;;;;5235762;28;20192;-67
2022/03/18 07:47:06;;;;;;;4.33;2.23;;;17.10;50.50;;;;;;5234677;28;20212;-66
2022/03/18 07:49:58;;;;;;;6.43;2.57;;;17.10;50.10;;;;;;5237295;28;20222;-67
2022/03/18 07:52:53;;;;;;;6.43;2.23;;;17.20;50.20;;;;;;5240035;28;20203;-66
2022/03/18 07:55:45;;;;;;;4.30;2.20;;;17.20;50.30;;;;;;5235767;28;20190;-68
2022/03/18 07:58:37;;;;;;;5.47;2.50;;;17.10;50.20;;;;;;5243178;28;20699;-65
2022/03/18 08:01:29;;;;;;;5.23;1.87;;;17.20;50.10;;;;;;5240064;28;20200;-64
2022/03/18 08:04:22;;;;;;;5.60;2.37;;;17.10;50.30;;;;;;5239064;28;20194;-64
2022/03/18 08:07:14;;;;;;;4.00;1.60;;;17.20;51.20;;;;;;5244989;28;20583;-64
2022/03/18 08:10:09;;;;;;;3.77;1.90;;;17.10;51.60;;;;;;5244938;28;20228;-64
2022/03/18 08:13:02;;;;;;;3.00;1.50;;;17.10;52.10;;;;;;5243603;28;20204;-64
2022/03/18 08:15:54;;;;;;;4.63;1.67;;;17.20;52.50;;;;;;5226418;28;20193;-65
2022/03/18 08:18:46;;;;;;;5.47;1.90;;;17.20;53.00;;;;;;5232042;28;20458;-64
2022/03/18 08:21:39;;;;;;;2.90;1.50;;;17.20;53.20;;;;;;5236670;28;20193;-65
2022/03/18 08:24:32;;;;;;;5.20;1.97;;;17.20;53.40;;;;;;5224392;28;20556;-65
2022/03/18 08:27:25;;;;;;;3.67;1.40;;;17.20;53.60;;;;;;5223853;28;20220;-65
2022/03/18 08:30:18;;;;;;;3.27;1.63;;;17.20;53.70;;;;;;5223887;28;20223;-65
2022/03/18 08:33:10;;;;;;;5.13;1.70;;;17.20;53.90;;;;;;5245580;28;20567;-64
2022/03/18 08:36:02;;;;;;;6.00;1.50;;;17.20;54.10;;;;;;5245072;28;20197;-65
2022/03/18 08:38:55;;;;;;;3.67;1.50;;;17.20;54.20;;;;;;5241903;28;20228;-65
2022/03/18 08:41:47;;;;;;;2.93;1.50;;;17.20;54.40;;;;;;5233450;28;20549;-65
2022/03/18 08:44:40;;;;;;;2.10;1.30;;;17.20;54.50;;;;;;5232880;28;20188;-65
2022/03/18 08:47:32;;;;;;;4.07;1.40;;;17.20;54.60;;;;;;5245154;28;20197;-65
2022/03/18 08:50:25;;;;;;;4.80;1.53;;;17.20;54.80;;;;;;5240824;28;20220;-65
2022/03/18 08:53:17;;;;;;;4.30;1.63;;;17.20;54.80;;;;;;5230271;28;20193;-65
2022/03/18 08:56:09;;;;;;;2.93;1.43;;;17.30;54.90;;;;;;5224698;28;20604;-65
2022/03/18 08:59:03;;;;;;;4.20;1.90;;;17.30;54.90;;;;;;5239542;28;20229;-65
2022/03/18 09:01:56;;;;;;;2.97;1.70;;;17.30;55.00;;;;;;5239563;28;20199;-64
2022/03/18 09:04:50;;;;;;;3.33;1.47;;;17.20;55.00;;;;;;5244859;28;20188;-63
2022/03/18 09:07:42;;;;;;;3.70;1.50;;;17.30;55.10;;;;;;5244216;28;20196;-64
2022/03/18 09:10:34;;;;;;;2.77;1.37;;;17.30;55.20;;;;;;5244523;28;20231;-64
2022/03/18 09:13:26;;;;;;;2.70;1.33;;;17.20;55.30;;;;;;5224061;28;20207;-63
2022/03/18 09:16:18;;;;;;;1.87;1.07;;;17.20;55.30;;;;;;5223790;28;20201;-63
2022/03/18 09:19:12;;;;;;;2.57;1.43;;;17.20;55.40;;;;;;5223935;28;20217;-63
2022/03/18 09:22:05;;;;;;;2.47;1.23;;;17.20;55.50;;;;;;5227402;28;20193;-63
2022/03/18 09:24:57;;;;;;;2.27;1.20;;;17.20;55.50;;;;;;5227321;28;20194;-66
2022/03/18 09:27:51;;;;;;;2.20;1.37;;;17.20;55.70;;;;;;5241245;28;20287;-66
2022/03/18 09:30:43;;;;;;;3.77;1.30;;;17.20;55.70;;;;;;5247377;28;20191;-67
2022/03/18 09:33:35;;;;;;;1.67;1.07;;;17.30;55.80;;;;;;5243391;28;20201;-64
2022/03/18 09:36:29;;;;;;;3.03;1.13;;;17.30;55.90;;;;;;5248152;28;20211;-63
2022/03/18 09:39:22;;;;;;;2.53;1.30;;;17.30;55.90;;;;;;5248051;28;20224;-63
2022/03/18 09:42:14;;;;;;;3.83;1.20;;;17.30;55.90;;;;;;5244946;28;20242;-63
2022/03/18 09:45:11;;;;;;;3.13;1.30;;;17.30;56.00;;;;;;5247435;28;20275;-65
2022/03/18 09:48:06;;;;;;;1.87;1.20;;;17.30;56.10;;;;;;5247003;28;20279;-64
2022/03/18 09:50:58;;;;;;;6.13;1.10;;;17.30;56.10;;;;;;5245510;28;20203;-65
2022/03/18 09:53:51;;;;;;;2.33;1.23;;;17.30;56.30;;;;;;5229600;28;20201;-64
2022/03/18 09:56:45;;;;;;;1.97;1.20;;;17.30;56.50;;;;;;5240318;28;20192;-65
2022/03/18 09:59:38;;;;;;;2.60;1.20;;;17.30;56.50;;;;;;5239372;28;20220;-65
2022/03/18 10:02:33;;;;;;;3.40;1.23;;;17.30;56.60;;;;;;5226955;28;20185;-64
2022/03/18 10:05:25;;;;;;;3.43;1.23;;;17.30;56.70;;;;;;5226502;28;20221;-64
2022/03/18 10:08:17;;;;;;;2.17;1.20;;;17.30;56.70;;;;;;5225999;28;20194;-64
2022/03/18 10:11:16;;;;;;;3.20;1.20;;;17.30;56.70;;;;;;5233388;28;20204;-65
2022/03/18 10:14:10;;;;;;;3.00;1.13;;;17.30;56.70;;;;;;5232983;28;20313;-65
2022/03/18 10:17:04;;;;;;;2.80;1.40;;;17.30;56.80;;;;;;5225253;28;20749;-65
2022/03/18 10:19:56;;;;;;;2.20;0.97;;;17.30;56.80;;;;;;5226327;28;20318;-65
2022/03/18 10:22:48;;;;;;;3.80;1.30;;;17.30;56.90;;;;;;5225694;28;20223;-64
2022/03/18 10:25:50;;;;;;;1.60;0.97;;;17.30;56.90;;;;;;5225780;28;20197;-65
2022/03/18 10:28:44;;;;;;;2.97;1.30;;;17.30;57.00;;;;;;5229373;28;20228;-65
2022/03/18 10:31:37;;;;;;;3.63;1.27;;;17.30;57.00;;;;;;5245781;28;20197;-65
2022/03/18 10:37:47;;;;;;;1.97;1.23;;;17.30;57.20;;;;;;5247540;28;20196;-65
2022/03/18 10:40:39;;;;;;;2.70;1.00;;;17.30;57.40;;;;;;5242170;28;20201;-65
2022/03/18 10:43:52;;;;;;;2.83;1.27;;;17.30;57.50;;;;;;5242970;28;20197;-65
2022/03/18 10:46:44;;;;;;;2.30;1.10;;;17.30;57.50;;;;;;5224683;28;20374;-64
2022/03/18 10:49:36;;;;;;;1.93;1.30;;;17.30;57.60;;;;;;5228908;28;20263;-65
2022/03/18 10:52:29;;;;;;;1.70;1.20;;;17.30;57.60;;;;;;5246739;28;20196;-65
2022/03/18 10:55:23;;;;;;;2.43;1.40;;;17.30;57.70;;;;;;5246722;28;20265;-65
2022/03/18 10:58:16;;;;;;;3.40;1.40;;;17.30;57.70;;;;;;5245927;28;20199;-62
2022/03/18 11:01:11;;;;;;;3.00;1.47;;;17.30;57.70;;;;;;5245700;28;20203;-64
2022/03/18 11:04:03;;;;;;;2.03;1.23;;;17.30;57.70;;;;;;5246812;28;20199;-63
2022/03/18 11:13:18;;;;;;;2.63;1.20;;;17.20;57.60;;;;;;5243955;28;20258;-63
2022/03/18 11:16:13;;;;;;;2.77;1.20;;;17.20;57.60;;;;;;5245745;28;20220;-63
2022/03/18 11:19:08;;;;;;;2.93;0.90;;;17.20;57.60;;;;;;5245806;28;20699;-63
2022/03/18 11:22:03;;;;;;;2.30;1.00;;;17.20;57.70;;;;;;5245866;28;20686;-64
2022/03/18 11:24:57;;;;;;;2.23;1.10;;;17.20;58.30;;;;;;5233094;28;20197;-63
2022/03/18 11:27:49;;;;;;;4.63;1.17;;;17.20;57.70;;;;;;5224489;28;20665;-63
2022/03/18 11:30:42;;;;;;;2.73;0.90;;;17.20;57.60;;;;;;5224471;28;20235;-67
2022/03/18 11:33:37;;;;;;;2.43;1.10;;;17.20;57.80;;;;;;5224827;28;20664;-64
2022/03/18 11:36:29;;;;;;;2.10;0.90;;;17.20;57.90;;;;;;5224535;28;20224;-63
2022/03/18 11:39:22;;;;;;;1.80;0.90;;;17.30;57.80;;;;;;5223330;28;20231;-64
2022/03/18 11:42:24;;;;;;;1.80;0.90;;;17.20;57.70;;;;;;5225717;28;20223;-64
2022/03/18 11:45:32;;;;;;;2.53;1.00;;;17.30;57.70;;;;;;5241939;28;20192;-65
2022/03/18 11:48:41;;;;;;;4.47;1.00;;;17.20;57.70;;;;;;5235794;28;20664;-64
2022/03/18 11:51:35;;;;;;;3.23;1.00;;;17.20;57.60;;;;;;5237356;28;20200;-64
2022/03/18 11:54:34;;;;;;;1.37;0.87;;;17.30;57.80;;;;;;5245298;28;20217;-65
2022/03/18 11:57:31;;;;;;;1.57;0.80;;;17.20;57.70;;;;;;5238659;28;20251;-66
2022/03/18 12:00:42;;;;;;;2.37;0.90;;;17.20;57.80;;;;;;5242188;28;20212;-64
2022/03/18 12:03:39;;;;;;;2.73;1.00;;;17.30;57.90;;;;;;5244340;28;20302;-65
2022/03/18 12:06:31;;;;;;;2.73;1.10;;;17.30;57.90;;;;;;5242326;28;20199;-64
2022/03/18 12:09:23;;;;;;;1.57;0.90;;;17.30;57.90;;;;;;5244285;28;20224;-64
2022/03/18 12:12:16;;;;;;;2.77;0.97;;;17.30;58.00;;;;;;5244419;28;20271;-65
2022/03/18 12:15:11;;;;;;;2.40;1.10;;;17.30;57.90;;;;;;5245286;28;20268;-64
2022/03/18 12:18:04;;;;;;;3.20;1.13;;;17.30;57.90;;;;;;5243558;28;20200;-65
2022/03/18 12:20:58;;;;;;;1.27;0.80;;;17.30;57.90;;;;;;5244475;28;20605;-66
2022/03/18 12:24:02;;;;;;;1.63;0.97;;;17.30;57.90;;;;;;5244572;28;20193;-65
2022/03/18 12:26:55;;;;;;;2.73;1.00;;;17.30;58.00;;;;;;5244605;28;20567;-66
2022/03/18 12:29:47;;;;;;;1.70;1.00;;;17.30;58.10;;;;;;5242766;28;20273;-66
2022/03/18 12:32:41;;;;;;;2.50;1.10;;;17.30;58.20;;;;;;5243938;28;20196;-65
2022/03/18 12:35:35;;;;;;;3.30;0.90;;;17.30;58.20;;;;;;5244098;28;20219;-67
2022/03/18 12:38:32;;;;;;;2.33;1.10;;;17.40;58.30;;;;;;5244234;28;20223;-65
2022/03/18 12:41:26;;;;;;;3.60;1.30;;;17.40;58.30;;;;;;5241126;28;20211;-64
2022/03/18 12:44:30;;;;;;;1.90;1.00;;;17.40;58.30;;;;;;5246323;28;20200;-64
2022/03/18 12:47:23;;;;;;;1.90;1.10;;;17.40;58.30;;;;;;5226526;28;20194;-65
2022/03/18 12:50:16;;;;;;;2.03;0.80;;;17.40;58.30;;;;;;5239564;28;20248;-64
2022/03/18 12:53:12;;;;;;;2.27;1.00;;;17.40;58.30;;;;;;5238652;28;20204;-65
2022/03/18 12:56:06;;;;;;;2.17;0.80;;;17.30;58.20;;;;;;5243540;28;20221;-65
2022/03/18 12:58:59;;;;;;;2.90;1.20;;;17.30;58.10;;;;;;5242198;28;20220;-65
2022/03/18 13:01:54;;;;;;;2.20;1.03;;;17.30;58.20;;;;;;5243339;28;20231;-64
2022/03/18 13:04:46;;;;;;;2.60;1.10;;;17.30;58.20;;;;;;5245656;28;20196;-65
2022/03/18 13:07:38;;;;;;;1.50;0.80;;;17.30;58.20;;;;;;5245227;28;20901;-64
2022/03/18 13:10:30;;;;;;;2.60;1.00;;;17.30;58.20;;;;;;5244656;28;20228;-66
2022/03/18 13:13:25;;;;;;;1.87;0.90;;;17.30;58.20;;;;;;5248300;28;20249;-64
2022/03/18 13:16:21;;;;;;;1.73;1.20;;;17.30;58.20;;;;;;5247387;28;20209;-64
2022/03/18 13:19:14;;;;;;;2.37;0.90;;;17.30;58.40;;;;;;5248041;28;20220;-64
2022/03/18 13:22:06;;;;;;;2.90;0.93;;;17.30;58.20;;;;;;5245188;28;20672;-65
2022/03/18 13:25:00;;;;;;;2.70;1.20;;;17.30;58.20;;;;;;5247177;28;20200;-64
2022/03/18 13:27:53;;;;;;;1.97;1.10;;;17.30;58.30;;;;;;5247617;28;20197;-64
2022/03/18 13:33:57;;;;;;;2.40;1.07;;;17.30;58.30;;;;;;5244230;28;20291;-64
2022/03/18 13:36:49;;;;;;;1.80;1.13;;;17.30;58.30;;;;;;5245394;28;20625;-64
2022/03/18 13:39:42;;;;;;;1.20;0.90;;;17.30;58.30;;;;;;5247128;28;20228;-64
2022/03/18 13:42:34;;;;;;;3.40;1.10;;;17.30;58.30;;;;;;5247324;28;20240;-65
2022/03/18 13:45:26;;;;;;;2.50;1.00;;;17.30;58.30;;;;;;5247218;28;20196;-66
2022/03/18 13:48:27;;;;;;;2.70;1.10;;;17.30;58.50;;;;;;5247312;28;20196;-66
2022/03/18 13:51:33;;;;;;;1.63;0.90;;;17.30;58.50;;;;;;5240371;28;20200;-65
2022/03/18 13:54:25;;;;;;;1.90;0.97;;;17.30;58.50;;;;;;5238321;28;20196;-65
2022/03/18 13:57:18;;;;;;;2.13;1.00;;;17.40;58.50;;;;;;5247170;28;20211;-65
2022/03/18 14:00:11;;;;;;;1.50;0.90;;;17.30;58.30;;;;;;5238762;28;20587;-66
2022/03/18 14:03:05;;;;;;;2.57;1.03;;;17.30;58.20;;;;;;5243201;28;20215;-66
2022/03/18 14:06:01;;;;;;;1.87;0.90;;;17.30;58.10;;;;;;5244474;28;20204;-66
2022/03/18 14:08:54;;;;;;;4.70;1.33;;;17.40;58.20;;;;;;5245034;28;20293;-65
2022/03/18 14:15:11;;;;;;;1.83;1.00;;;17.30;58.10;;;;;;5237068;28;20283;-65
2022/03/18 14:18:06;;;;;;;2.50;1.10;;;17.30;58.30;;;;;;5247021;28;20203;-65
2022/03/18 14:21:01;;;;;;;1.70;0.80;;;17.30;58.30;;;;;;5246643;28;20910;-66
2022/03/18 14:23:53;;;;;;;2.00;0.83;;;17.30;58.30;;;;;;5244347;28;20193;-65
2022/03/18 14:26:45;;;;;;;2.57;1.03;;;17.30;58.30;;;;;;5246428;28;20192;-66
2022/03/18 14:29:39;;;;;;;1.30;0.67;;;17.30;58.20;;;;;;5246525;28;20212;-66
2022/03/18 14:32:31;;;;;;;2.23;1.00;;;17.30;58.30;;;;;;5239348;28;20342;-64
2022/03/18 14:35:24;;;;;;;1.53;0.83;;;17.30;58.30;;;;;;5240012;28;20231;-65
2022/03/18 14:38:18;;;;;;;2.27;0.90;;;17.30;58.30;;;;;;5246326;28;20310;-65
2022/03/18 14:41:12;;;;;;;3.53;1.20;;;17.30;58.20;;;;;;5245016;28;20581;-66
2022/03/18 14:44:04;;;;;;;2.10;0.93;;;17.30;58.10;;;;;;5244984;28;20598;-64
2022/03/18 14:46:59;;;;;;;1.90;0.87;;;17.30;58.20;;;;;;5257233;28;20215;-66
2022/03/18 14:49:52;;;;;;;2.43;1.07;;;17.30;58.20;;;;;;5242202;28;20209;-66
2022/03/18 14:52:44;;;;;;;1.63;0.63;;;17.30;58.20;;;;;;5241700;28;20653;-65
2022/03/18 14:58:48;;;;;;;1.33;0.70;;;17.30;58.30;;;;;;5244728;28;20224;-65
2022/03/18 15:01:40;;;;;;;1.40;0.83;;;17.30;58.30;;;;;;5246045;28;20275;-65
2022/03/18 15:04:32;;;;;;;2.23;0.90;;;17.30;58.40;;;;;;5246002;28;20211;-65
2022/03/18 15:07:24;;;;;;;1.80;0.90;;;17.30;58.50;;;;;;5246107;28;20192;-65
2022/03/18 15:10:16;;;;;;;2.43;0.70;;;17.30;58.50;;;;;;5245908;28;20236;-65
2022/03/18 15:13:11;;;;;;;1.37;0.70;;;17.30;58.60;;;;;;5243836;28;20201;-65
2022/03/18 15:16:03;;;;;;;1.47;0.63;;;17.30;58.70;;;;;;5241762;28;20215;-64
2022/03/18 15:18:55;;;;;;;1.23;0.70;;;17.30;58.70;;;;;;5245297;28;20219;-65
2022/03/18 15:21:48;;;;;;;2.60;1.07;;;17.30;58.70;;;;;;5243192;28;20193;-65
2022/03/18 15:24:40;;;;;;;3.10;0.90;;;17.30;58.80;;;;;;5244194;28;20664;-66
2022/03/18 15:27:33;;;;;;;0.80;0.50;;;17.30;58.80;;;;;;5244998;28;20195;-65
2022/03/18 15:30:27;;;;;;;2.37;0.83;;;17.30;58.90;;;;;;5244636;28;20295;-66
2022/03/18 15:33:19;;;;;;;1.67;0.90;;;17.30;58.90;;;;;;5240075;28;20210;-65
2022/03/18 15:36:11;;;;;;;1.50;0.70;;;17.30;58.90;;;;;;5245791;28;20220;-66
2022/03/18 15:39:04;;;;;;;1.77;0.70;;;17.30;58.90;;;;;;5244718;28;20224;-66